Back to Top

Language: 

My Weather Underground Personal Weather Station Historical Data with Graphs...

Delerius Weather Station Historical Data
Daily Summary for May 27, 2017 Units:  Metric    English   Both
« Previous Day
Next Day »
Daily Weekly Monthly Yearly Custom
  High: Low: Average:
Temperature: 25.7 °C 11.1 °C 17.4 °C
Dew Point: 19.4 °C 10 °C 13.9 °C
Humidity: 95 % 56 % 81 %
Wind Speed: 30.6 km/h 0 km/h 10.5 km/h
Wind Gust: 56.3 km/h - -
Wind:- - South
Pressure: 1014.8 hPa 1007 hPa -
Precipitation: 0.76 mm    
Historical Graphs
 
 
Tabular Data for May 27, 2017
Time Temperature Dew Point Pressure Wind Wind Speed Wind Gust Humidity Rainfall Rate (Hourly) solar Conditions
00:01 16.6 °C 13.3 °C 1014.8 hPa Calm     81 % 0 mm 0 W/m2
00:03 16.6 °C 13.3 °C 1014.8 hPa Calm     81 % 0 mm 0 W/m2
00:08 16.4 °C 13.1 °C 1014.8 hPa Calm     81 % 0 mm 0 W/m2
00:13 16.3 °C 13.2 °C 1014.8 hPa Calm     82 % 0 mm 0 W/m2
00:18 16.2 °C 13.3 °C 1014.4 hPa Calm     83 % 0 mm 0 W/m2
00:23 16.1 °C 13.2 °C 1014.4 hPa Calm     83 % 0 mm 0 W/m2
00:28 15.9 °C 13 °C 1014.4 hPa Calm     83 % 0 mm 0 W/m2
00:34 15.9 °C 13.2 °C 1014.4 hPa Calm     84 % 0 mm 0 W/m2
00:39 15.8 °C 13.1 °C 1014.4 hPa Calm     84 % 0 mm 0 W/m2
00:44 15.7 °C 13 °C 1014.4 hPa Calm     84 % 0 mm 0 W/m2
00:49 15.6 °C 13.1 °C 1014.4 hPa Calm     85 % 0 mm 0 W/m2
00:54 15.5 °C 13 °C 1014.4 hPa Calm     85 % 0 mm 0 W/m2
00:59 15.4 °C 12.9 °C 1014.1 hPa Calm     85 % 0 mm 0 W/m2
01:04 15.3 °C 12.9 °C 1014.1 hPa Calm   3.2 km/h 86 % 0 mm 0 W/m2
01:10 15.4 °C 13.2 °C 1014.1 hPa South 1.6 km/h 6.4 km/h 87 % 0 mm 0 W/m2
01:15 15.4 °C 13.2 °C 1014.1 hPa South 1.6 km/h 6.4 km/h 87 % 0 mm 0 W/m2
01:20 15.4 °C 13.2 °C 1014.1 hPa South 1.6 km/h 4.8 km/h 87 % 0 mm 0 W/m2
01:25 15.4 °C 13.2 °C 1014.1 hPa Calm   3.2 km/h 87 % 0 mm 0 W/m2
01:30 15.4 °C 13.2 °C 1014.1 hPa Calm   3.2 km/h 87 % 0 mm 0 W/m2
01:35 15.3 °C 12.9 °C 1014.1 hPa Calm     86 % 0 mm 0 W/m2
01:40 15.1 °C 12.8 °C 1014.1 hPa Calm     86 % 0 mm 0 W/m2
01:45 14.9 °C 12.6 °C 1014.1 hPa Calm     86 % 0 mm 0 W/m2
01:50 14.8 °C 12.5 °C 1013.8 hPa Calm     86 % 0 mm 0 W/m2
01:55 14.7 °C 12.6 °C 1013.8 hPa Calm     87 % 0 mm 0 W/m2
02:00 14.6 °C 12.4 °C 1013.8 hPa Calm     87 % 0 mm 0 W/m2
02:05 14.4 °C 12.3 °C 1013.8 hPa Calm     87 % 0 mm 0 W/m2
02:10 14.3 °C 12.2 °C 1013.8 hPa Calm     87 % 0 mm 0 W/m2
02:15 14.1 °C 12.2 °C 1013.8 hPa Calm     88 % 0 mm 0 W/m2
02:20 13.9 °C 11.9 °C 1013.8 hPa Calm     88 % 0 mm 0 W/m2
02:25 13.9 °C 12.1 °C 1013.8 hPa Calm     89 % 0 mm 0 W/m2
02:30 13.8 °C 12 °C 1013.4 hPa Calm     89 % 0 mm 0 W/m2
02:35 13.7 °C 11.9 °C 1013.4 hPa Calm     89 % 0 mm 0 W/m2
02:40 13.6 °C 12 °C 1013.4 hPa Calm     90 % 0 mm 0 W/m2
02:45 13.5 °C 11.7 °C 1013.1 hPa Calm     89 % 0 mm 0 W/m2
02:50 13.4 °C 11.8 °C 1013.1 hPa Calm     90 % 0 mm 0 W/m2
02:55 13.3 °C 11.7 °C 1013.1 hPa Calm     90 % 0 mm 0 W/m2
03:00 13.2 °C 11.6 °C 1013.1 hPa Calm     90 % 0 mm 0 W/m2
03:05 13.1 °C 11.5 °C 1013.1 hPa Calm   1.6 km/h 90 % 0 mm 0 W/m2
03:11 13 °C 11.4 °C 1013.1 hPa Calm   1.6 km/h 90 % 0 mm 0 W/m2
03:16 12.9 °C 11.3 °C 1012.8 hPa Calm     90 % 0 mm 0 W/m2
03:21 12.8 °C 11.2 °C 1012.8 hPa Calm     90 % 0 mm 0 W/m2
03:26 12.7 °C 11.3 °C 1012.8 hPa Calm     91 % 0 mm 0 W/m2
03:31 12.6 °C 11.2 °C 1012.4 hPa Calm     91 % 0 mm 0 W/m2
03:36 12.6 °C 11.2 °C 1012.4 hPa Calm     91 % 0 mm 0 W/m2
03:41 12.6 °C 11.2 °C 1012.4 hPa Calm   3.2 km/h 91 % 0 mm 0 W/m2
03:46 12.5 °C 11.1 °C 1012.4 hPa Calm   3.2 km/h 91 % 0 mm 0 W/m2
03:51 12.4 °C 10.9 °C 1012.1 hPa Calm     91 % 0 mm 0 W/m2
03:56 12.3 °C 10.9 °C 1012.1 hPa Calm     91 % 0 mm 0 W/m2
04:01 12.2 °C 10.9 °C 1012.1 hPa Calm     92 % 0 mm 0 W/m2
04:06 12.3 °C 11.1 °C 1012.1 hPa Calm     92 % 0 mm 0 W/m2
04:11 12.2 °C 10.9 °C 1012.1 hPa Calm     92 % 0 mm 0 W/m2
04:16 12.1 °C 10.8 °C 1012.1 hPa Calm     92 % 0 mm 0 W/m2
04:21 11.9 °C 10.7 °C 1012.1 hPa Calm     92 % 0 mm 0 W/m2
04:26 11.9 °C 10.7 °C 1012.1 hPa Calm     92 % 0 mm 0 W/m2
04:31 11.8 °C 10.6 °C 1012.1 hPa Calm     92 % 0 mm 0 W/m2
04:36 11.8 °C 10.6 °C 1012.1 hPa Calm     92 % 0 mm 0 W/m2
04:41 11.7 °C 10.4 °C 1012.1 hPa Calm     92 % 0 mm 0 W/m2
04:46 11.7 °C 10.4 °C 1012.1 hPa Calm     92 % 0 mm 0 W/m2
04:51 11.6 °C 10.5 °C 1012.1 hPa Calm     93 % 0 mm 5 W/m2
04:56 11.6 °C 10.3 °C 1012.4 hPa Calm   3.2 km/h 92 % 0 mm 7 W/m2
05:01 11.4 °C 10.2 °C 1012.4 hPa Calm   3.2 km/h 92 % 0 mm 9 W/m2
05:06 11.3 °C 10.1 °C 1012.1 hPa Calm     92 % 0 mm 11 W/m2
05:11 11.3 °C 10.2 °C 1012.1 hPa Calm     93 % 0 mm 12 W/m2
05:16 11.2 °C 10.1 °C 1012.1 hPa Calm     93 % 0 mm 14 W/m2
05:21 11.2 °C 10.1 °C 1012.1 hPa Calm     93 % 0 mm 16 W/m2
05:26 11.1 °C 10 °C 1012.1 hPa Calm     93 % 0 mm 19 W/m2
05:31 11.1 °C 10 °C 1012.1 hPa Calm     93 % 0 mm 21 W/m2
05:36 11.1 °C 10 °C 1012.1 hPa Calm     93 % 0 mm 25 W/m2
05:41 11.1 °C 10 °C 1012.1 hPa Calm     93 % 0 mm 26 W/m2
05:46 11.2 °C 10.3 °C 1011.7 hPa Calm     94 % 0 mm 28 W/m2
05:51 11.2 °C 10.3 °C 1011.7 hPa Calm     94 % 0 mm 32 W/m2
05:56 11.3 °C 10.4 °C 1011.7 hPa Calm     94 % 0 mm 33 W/m2
06:01 11.4 °C 10.4 °C 1011.7 hPa Calm     94 % 0 mm 84 W/m2
06:06 11.6 °C 10.7 °C 1012.1 hPa Calm     94 % 0 mm 88 W/m2
06:11 11.8 °C 11 °C 1012.1 hPa Calm     95 % 0 mm 90 W/m2
06:12 11.8 °C 11 °C 1012.1 hPa Calm     95 % 0 mm 90 W/m2
06:17 11.9 °C 10.9 °C 1012.1 hPa Calm     94 % 0 mm 113 W/m2
06:22 12.1 °C 11.2 °C 1012.1 hPa Calm     94 % 0 mm 81 W/m2
06:27 12.3 °C 11.4 °C 1012.1 hPa Calm     94 % 0 mm 93 W/m2
06:32 12.7 °C 11.9 °C 1012.1 hPa Calm     95 % 0 mm 90 W/m2
06:37 13 °C 12.1 °C 1012.1 hPa Calm     94 % 0 mm 109 W/m2
06:42 13.2 °C 12.3 °C 1012.1 hPa Calm   3.2 km/h 94 % 0 mm 104 W/m2
06:47 13.3 °C 12.2 °C 1012.1 hPa Calm   3.2 km/h 93 % 0 mm 130 W/m2
06:52 13.6 °C 12.5 °C 1012.1 hPa Calm     93 % 0 mm 132 W/m2
06:57 13.8 °C 12.7 °C 1011.7 hPa Calm     93 % 0 mm 130 W/m2
07:02 13.9 °C 12.8 °C 1011.7 hPa Calm     93 % 0 mm 130 W/m2
07:07 14.1 °C 12.8 °C 1011.7 hPa Calm     92 % 0 mm 156 W/m2
07:12 14.4 °C 13.1 °C 1011.7 hPa Calm     92 % 0 mm 229 W/m2
07:17 14.6 °C 13.2 °C 1011.7 hPa Calm   1.6 km/h 91 % 0 mm 190 W/m2
07:22 14.8 °C 13.2 °C 1011.7 hPa Calm   1.6 km/h 90 % 0 mm 174 W/m2
07:27 15 °C 13.4 °C 1011.4 hPa Calm     90 % 0 mm 144 W/m2
07:32 15.2 °C 13.4 °C 1011.7 hPa Calm   1.6 km/h 89 % 0 mm 172 W/m2
07:37 15.4 °C 13.6 °C 1011.4 hPa Calm   1.6 km/h 89 % 0 mm 206 W/m2
07:42 15.6 °C 13.6 °C 1011.7 hPa Calm     88 % 0 mm 366 W/m2
07:47 15.9 °C 13.9 °C 1011.4 hPa Calm   3.2 km/h 88 % 0 mm 343 W/m2
07:52 16.4 °C 14.1 °C 1011.1 hPa Calm   3.2 km/h 86 % 0 mm 381 W/m2
07:58 16.9 °C 14 °C 1011.1 hPa Calm   8 km/h 83 % 0 mm 452 W/m2
08:03 17.3 °C 14.2 °C 1011.4 hPa ESE 1.6 km/h 8 km/h 82 % 0 mm 281 W/m2
08:08 17.3 °C 14 °C 1011.4 hPa ENE 1.6 km/h 6.4 km/h 81 % 0 mm 237 W/m2
08:13 17.2 °C 13.9 °C 1011.1 hPa NE 1.6 km/h 6.4 km/h 81 % 0 mm 199 W/m2
08:18 17.2 °C 13.9 °C 1011.1 hPa ENE 1.6 km/h 4.8 km/h 81 % 0 mm 221 W/m2
08:23 17.1 °C 13.8 °C 1011.1 hPa SE 1.6 km/h 6.4 km/h 81 % 0 mm 200 W/m2
08:28 17.1 °C 14 °C 1011.1 hPa SE 1.6 km/h 6.4 km/h 82 % 0 mm 274 W/m2
08:33 17.1 °C 14 °C 1011.1 hPa Calm   4.8 km/h 82 % 0 mm 313 W/m2
08:38 17.3 °C 14.2 °C 1011.1 hPa SE 1.6 km/h 9.7 km/h 82 % 0 mm 485 W/m2
08:43 17.5 °C 14.2 °C 1011.1 hPa SE 3.2 km/h 9.7 km/h 81 % 0 mm 396 W/m2
08:48 17.7 °C 14.2 °C 1011.1 hPa SE 3.2 km/h 9.7 km/h 80 % 0 mm 411 W/m2
08:53 17.8 °C 14.1 °C 1010.7 hPa ESE 3.2 km/h 8 km/h 79 % 0 mm 415 W/m2
08:58 17.8 °C 14.1 °C 1010.4 hPa ENE 1.6 km/h 8 km/h 79 % 0 mm 329 W/m2
09:03 17.9 °C 14.2 °C 1010.4 hPa East 3.2 km/h 8 km/h 79 % 0 mm 274 W/m2
09:08 17.9 °C 14.2 °C 1010.4 hPa ESE 1.6 km/h 8 km/h 79 % 0 mm 264 W/m2
09:13 18.1 °C 14.2 °C 1010 hPa SE 3.2 km/h 11.3 km/h 78 % 0 mm 306 W/m2
09:18 18.2 °C 14.5 °C 1010 hPa SE 3.2 km/h 11.3 km/h 79 % 0 mm 348 W/m2
09:19 18.3 °C 14.6 °C 1010 hPa SE 3.2 km/h 11.3 km/h 79 % 0 mm 378 W/m2
09:24 18.4 °C 14.5 °C 1009.7 hPa ESE 3.2 km/h 11.3 km/h 78 % 0 mm 485 W/m2
09:29 18.6 °C 14.7 °C 1009.7 hPa East 4.8 km/h 11.3 km/h 78 % 0 mm 439 W/m2
09:34 18.8 °C 14.9 °C 1009.7 hPa ENE 4.8 km/h 12.9 km/h 78 % 0 mm 258 W/m2
09:39 18.8 °C 14.5 °C 1009.7 hPa ESE 6.4 km/h 14.5 km/h 76 % 0 mm 239 W/m2
09:44 18.9 °C 14.6 °C 1010 hPa SE 6.4 km/h 14.5 km/h 76 % 0 mm 278 W/m2
09:49 19.1 °C 14.9 °C 1009.7 hPa ESE 3.2 km/h 11.3 km/h 77 % 0 mm 663 W/m2
09:54 19.3 °C 14.9 °C 1009.7 hPa East 4.8 km/h 12.9 km/h 76 % 0 mm 466 W/m2
10:04 19.8 °C 14.8 °C 1009.7 hPa SE 6.4 km/h 12.9 km/h 73 % 0 mm 290 W/m2
10:09 19.8 °C 15.1 °C 1010 hPa SSE 8 km/h 14.5 km/h 74 % 0 mm 146 W/m2
10:14 19.7 °C 14.9 °C 1010.4 hPa SSE 8 km/h 16.1 km/h 74 % 0 mm 54 W/m2
10:19 19.4 °C 14.8 °C 1010.4 hPa SSE 11.3 km/h 22.5 km/h 75 % 0 mm 37 W/m2
10:24 19.2 °C 15.1 °C 1009.7 hPa SSE 11.3 km/h 22.5 km/h 77 % 0 mm 40 W/m2
10:29 18.7 °C 15.4 °C 1009 hPa ESE 8 km/h 17.7 km/h 81 % 0.51 mm 49 W/m2
10:34 18.4 °C 15.4 °C 1008.7 hPa East 6.4 km/h 14.5 km/h 83 % 0.51 mm 84 W/m2
10:39 18.2 °C 15.6 °C 1008.7 hPa East 6.4 km/h 16.1 km/h 85 % 0.51 mm 120 W/m2
10:44 18 °C 15.4 °C 1008.7 hPa ESE 8 km/h 16.1 km/h 85 % 0.51 mm 202 W/m2
10:46 18 °C 15.6 °C 1008.7 hPa East 6.4 km/h 12.9 km/h 86 % 0.51 mm 227 W/m2
10:51 18.1 °C 15.9 °C 1008.7 hPa ESE 6.4 km/h 11.3 km/h 87 % 0.51 mm 381 W/m2
10:56 18.3 °C 16.3 °C 1008.7 hPa ESE 4.8 km/h 11.3 km/h 88 % 0.51 mm 469 W/m2
11:01 18.7 °C 16.7 °C 1008.7 hPa ESE 4.8 km/h 11.3 km/h 88 % 0.51 mm 805 W/m2
11:11 19.6 °C 17 °C 1008.7 hPa East 8 km/h 17.7 km/h 85 % 0.51 mm 796 W/m2
11:16 20.1 °C 16.9 °C 1009 hPa East 9.7 km/h 17.7 km/h 82 % 0.51 mm 798 W/m2
11:21 20.4 °C 16.8 °C 1008.7 hPa ESE 11.3 km/h 19.3 km/h 80 % 0.51 mm 795 W/m2
11:26 20.7 °C 16.9 °C 1008.7 hPa ESE 11.3 km/h 19.3 km/h 79 % 0.25 mm 812 W/m2
11:31 21.1 °C 17.3 °C 1008.7 hPa SE 8 km/h 16.1 km/h 79 % 0 mm 821 W/m2
11:36 21.4 °C 17.2 °C 1008.7 hPa SE 8 km/h 14.5 km/h 77 % 0 mm 840 W/m2
11:41 21.9 °C 17.1 °C 1008.7 hPa ESE 8 km/h 16.1 km/h 74 % 0 mm 872 W/m2
11:46 22.2 °C 17.1 °C 1008.4 hPa ESE 9.7 km/h 17.7 km/h 73 % 0 mm 935 W/m2
11:51 22.5 °C 17.4 °C 1008.4 hPa ESE 11.3 km/h 17.7 km/h 73 % 0 mm 935 W/m2
11:56 22.6 °C 17.3 °C 1008.4 hPa ESE 12.9 km/h 24.1 km/h 72 % 0 mm 863 W/m2
12:01 22.8 °C 17.3 °C 1008.4 hPa ESE 12.9 km/h 24.1 km/h 71 % 0 mm 840 W/m2
12:06 23 °C 17.2 °C 1008.4 hPa ESE 12.9 km/h 22.5 km/h 70 % 0 mm 851 W/m2
12:11 23.2 °C 17.7 °C 1008.4 hPa ESE 12.9 km/h 20.9 km/h 71 % 0 mm 854 W/m2
12:16 23.3 °C 17.7 °C 1008.4 hPa SE 9.7 km/h 19.3 km/h 71 % 0 mm 863 W/m2
12:21 23.6 °C 18.1 °C 1008.4 hPa SE 9.7 km/h 16.1 km/h 71 % 0 mm 879 W/m2
12:26 23.9 °C 18.1 °C 1008.4 hPa SE 11.3 km/h 17.7 km/h 70 % 0 mm 868 W/m2
12:31 24.1 °C 17.8 °C 1008.4 hPa SE 12.9 km/h 17.7 km/h 68 % 0 mm 881 W/m2
12:36 24.2 °C 17.9 °C 1008.4 hPa SSE 14.5 km/h 32.2 km/h 68 % 0 mm 882 W/m2
12:41 24.5 °C 17.9 °C 1008.4 hPa SSE 12.9 km/h 32.2 km/h 67 % 0 mm 896 W/m2
12:46 24.8 °C 18.3 °C 1008.4 hPa SE 12.9 km/h 29 km/h 67 % 0 mm 918 W/m2
12:51 24.9 °C 18.1 °C 1008 hPa SE 14.5 km/h 29 km/h 66 % 0 mm 918 W/m2
12:56 24.9 °C 18.1 °C 1008 hPa SSE 14.5 km/h 22.5 km/h 66 % 0 mm 1046 W/m2
13:01 25.4 °C 18.3 °C 1007.7 hPa SSE 12.9 km/h 22.5 km/h 65 % 0 mm 1048 W/m2
13:06 25.7 °C 17.9 °C 1007.3 hPa SSE 12.9 km/h 24.1 km/h 62 % 0 mm 116 W/m2
13:11 25.4 °C 17.6 °C 1007.7 hPa SSE 12.9 km/h 24.1 km/h 62 % 0 mm 137 W/m2
13:16 25.1 °C 19.4 °C 1007.3 hPa SSE 12.9 km/h 22.5 km/h 71 % 0.25 mm 98 W/m2
13:21 24.2 °C 18.8 °C 1007 hPa SE 14.5 km/h 25.7 km/h 72 % 0.25 mm 42 W/m2
13:23 23.9 °C 18.6 °C 1007.3 hPa SE 16.1 km/h 30.6 km/h 72 % 0.25 mm 42 W/m2
13:28 22.9 °C 18.4 °C 1007.3 hPa SE 17.7 km/h 32.2 km/h 76 % 0.51 mm 424 W/m2
13:33 22.4 °C 19.2 °C 1007.3 hPa SE 17.7 km/h 32.2 km/h 82 % 0.51 mm 1085 W/m2
13:38 22.8 °C 18.3 °C 1007 hPa SSE 17.7 km/h 43.5 km/h 76 % 0.51 mm 1020 W/m2
13:43 23.6 °C 17.3 °C 1007 hPa South 24.1 km/h 48.3 km/h 68 % 0.51 mm 1027 W/m2
13:48 24 °C 17 °C 1007 hPa South 27.4 km/h 56.3 km/h 65 % 0.51 mm 1013 W/m2
13:53 24.3 °C 17.1 °C 1007 hPa South 25.7 km/h 56.3 km/h 64 % 0.51 mm 636 W/m2
13:58 24.2 °C 16.4 °C 1007.3 hPa South 24.1 km/h 48.3 km/h 62 % 0.51 mm 468 W/m2
14:03 24.1 °C 16.9 °C 1007.3 hPa South 24.1 km/h 48.3 km/h 64 % 0.51 mm 821 W/m2
14:08 23.9 °C 15.9 °C 1007 hPa South 25.7 km/h 48.3 km/h 61 % 0.51 mm 376 W/m2
14:13 24.2 °C 15.9 °C 1007 hPa South 24.1 km/h 48.3 km/h 60 % 0.51 mm 1018 W/m2
14:18 24.5 °C 15.7 °C 1007 hPa South 20.9 km/h 45.1 km/h 58 % 0.25 mm 213 W/m2
14:23 24.5 °C 15.7 °C 1007 hPa South 22.5 km/h 45.1 km/h 58 % 0.25 mm 914 W/m2
14:28 24.6 °C 15.5 °C 1007 hPa South 24.1 km/h 43.5 km/h 57 % 0 mm 239 W/m2
14:33 24.4 °C 15.6 °C 1007.3 hPa South 22.5 km/h 43.5 km/h 58 % 0 mm 253 W/m2
14:38 24.5 °C 15.7 °C 1007.3 hPa South 24.1 km/h 43.5 km/h 58 % 0 mm 410 W/m2
14:43 24.3 °C 14.9 °C 1007.3 hPa SSW 24.1 km/h 43.5 km/h 56 % 0 mm 355 W/m2
14:48 24.1 °C 15.6 °C 1007.3 hPa South 25.7 km/h 48.3 km/h 59 % 0 mm 1000 W/m2
14:53 23.9 °C 15.1 °C 1007.3 hPa SSW 29 km/h 48.3 km/h 58 % 0 mm 443 W/m2
14:58 23.8 °C 15.3 °C 1007.3 hPa SSW 25.7 km/h 48.3 km/h 59 % 0 mm 316 W/m2
15:03 23.6 °C 15.1 °C 1007.7 hPa SSW 25.7 km/h 51.5 km/h 59 % 0 mm 343 W/m2
15:08 23.3 °C 14.8 °C 1007.7 hPa SSW 29 km/h 51.5 km/h 59 % 0 mm 325 W/m2
15:13 22.8 °C 15.6 °C 1007.7 hPa SSW 29 km/h 49.9 km/h 64 % 0 mm 443 W/m2
15:18 22.7 °C 15.8 °C 1007.7 hPa SSW 30.6 km/h 48.3 km/h 65 % 0 mm 464 W/m2
15:23 22.2 °C 15.3 °C 1008 hPa SSW 30.6 km/h 49.9 km/h 65 % 0 mm 388 W/m2
15:28 21.8 °C 14.9 °C 1007.7 hPa SSW 30.6 km/h 54.7 km/h 65 % 0 mm 269 W/m2
15:34 21.5 °C 15.1 °C 1008 hPa SSW 29 km/h 54.7 km/h 67 % 0 mm 225 W/m2
15:39 21.1 °C 14.9 °C 1008 hPa SSW 25.7 km/h 49.9 km/h 68 % 0 mm 385 W/m2
15:44 21.1 °C 15.2 °C 1008 hPa SSW 24.1 km/h 49.9 km/h 69 % 0 mm 188 W/m2
15:49 20.6 °C 14.7 °C 1008.4 hPa SSW 27.4 km/h 49.9 km/h 69 % 0 mm 86 W/m2
15:54 20.2 °C 14.6 °C 1008.4 hPa SSW 25.7 km/h 45.1 km/h 70 % 0 mm 158 W/m2
15:59 19.8 °C 14.6 °C 1008.7 hPa SSW 24.1 km/h 41.8 km/h 72 % 0 mm 128 W/m2
16:04 19.5 °C 14.6 °C 1008.7 hPa SSW 25.7 km/h 45.1 km/h 73 % 0 mm 53 W/m2
16:09 19.2 °C 14.4 °C 1008.7 hPa SSW 22.5 km/h 45.1 km/h 74 % 0 mm 56 W/m2
16:14 18.9 °C 14.4 °C 1008.7 hPa SSW 19.3 km/h 45.1 km/h 75 % 0 mm 81 W/m2
16:19 18.8 °C 14.5 °C 1008.7 hPa SSW 16.1 km/h 32.2 km/h 76 % 0 mm 70 W/m2
16:24 18.4 °C 14.3 °C 1008.7 hPa SSW 19.3 km/h 38.6 km/h 77 % 0 mm 88 W/m2
16:29 18.3 °C 14.4 °C 1008.4 hPa SSW 20.9 km/h 40.2 km/h 78 % 0 mm 144 W/m2
16:34 18.3 °C 14.4 °C 1008.4 hPa SSW 19.3 km/h 40.2 km/h 78 % 0 mm 104 W/m2
16:39 18.3 °C 14.2 °C 1008.7 hPa SSW 19.3 km/h 35.4 km/h 77 % 0 mm 141 W/m2
16:44 18.3 °C 14.4 °C 1008.4 hPa SSW 20.9 km/h 40.2 km/h 78 % 0 mm 248 W/m2
16:49 18.5 °C 14.6 °C 1008.4 hPa SSW 17.7 km/h 40.2 km/h 78 % 0 mm 250 W/m2
16:54 18.7 °C 14.6 °C 1008.7 hPa SSW 17.7 km/h 35.4 km/h 77 % 0 mm 148 W/m2
16:59 18.6 °C 14.5 °C 1008.7 hPa SSW 20.9 km/h 41.8 km/h 77 % 0 mm 121 W/m2
17:04 18.3 °C 14.4 °C 1008.7 hPa SSW 22.5 km/h 41.8 km/h 78 % 0 mm 91 W/m2
17:09 18.2 °C 14.5 °C 1008.4 hPa SSW 19.3 km/h 35.4 km/h 79 % 0 mm 118 W/m2
17:14 18.2 °C 14.5 °C 1008.4 hPa SSW 16.1 km/h 35.4 km/h 79 % 0 mm 114 W/m2
17:19 18.2 °C 14.5 °C 1008.4 hPa SSW 16.1 km/h 35.4 km/h 79 % 0 mm 116 W/m2
17:24 18.1 °C 14.4 °C 1008.7 hPa SSW 19.3 km/h 41.8 km/h 79 % 0 mm 107 W/m2
17:29 18.1 °C 14.4 °C 1008.7 hPa SW 19.3 km/h 41.8 km/h 79 % 0 mm 107 W/m2
17:34 18.1 °C 14.4 °C 1008.7 hPa SW 19.3 km/h 45.1 km/h 79 % 0 mm 255 W/m2
17:39 18.1 °C 14.4 °C 1008.7 hPa SW 22.5 km/h 45.1 km/h 79 % 0 mm 279 W/m2
17:44 18.2 °C 14.5 °C 1008.7 hPa SW 20.9 km/h 37 km/h 79 % 0 mm 148 W/m2
17:50 18.2 °C 14.3 °C 1009 hPa SW 19.3 km/h 33.8 km/h 78 % 0 mm 116 W/m2
17:55 18.2 °C 14.3 °C 1009 hPa SW 19.3 km/h 37 km/h 78 % 0 mm 179 W/m2
18:00 18.3 °C 14.4 °C 1009 hPa SW 17.7 km/h 37 km/h 78 % 0 mm 149 W/m2
18:05 18.4 °C 14.5 °C 1009 hPa SW 12.9 km/h 30.6 km/h 78 % 0 mm 279 W/m2
18:10 18.7 °C 14.6 °C 1008.7 hPa SW 12.9 km/h 32.2 km/h 77 % 0 mm 675 W/m2
18:15 18.9 °C 14.6 °C 1009 hPa WSW 19.3 km/h 45.1 km/h 76 % 0 mm 543 W/m2
18:20 18.8 °C 14.5 °C 1008.7 hPa SW 24.1 km/h 45.1 km/h 76 % 0 mm 232 W/m2
18:25 18.6 °C 14.3 °C 1009 hPa SW 22.5 km/h 43.5 km/h 76 % 0 mm 97 W/m2
18:30 18.4 °C 14.3 °C 1009 hPa SW 20.9 km/h 37 km/h 77 % 0 mm 65 W/m2
18:35 18.3 °C 14.4 °C 1009 hPa SW 19.3 km/h 33.8 km/h 78 % 0 mm 91 W/m2
18:40 18.2 °C 14.3 °C 1009 hPa WSW 16.1 km/h 35.4 km/h 78 % 0 mm 97 W/m2
18:45 18.1 °C 14.4 °C 1009.4 hPa SW 17.7 km/h 37 km/h 79 % 0 mm 93 W/m2
18:50 18.1 °C 14.4 °C 1009 hPa SW 17.7 km/h 37 km/h 79 % 0 mm 146 W/m2
18:55 18.1 °C 14.4 °C 1009 hPa SW 19.3 km/h 35.4 km/h 79 % 0 mm 146 W/m2
19:00 18.2 °C 14.5 °C 1009.4 hPa SW 20.9 km/h 35.4 km/h 79 % 0 mm 165 W/m2
19:05 18.1 °C 14.2 °C 1009.4 hPa SW 20.9 km/h 41.8 km/h 78 % 0 mm 114 W/m2
19:10 18.1 °C 14.2 °C 1009.4 hPa SW 22.5 km/h 41.8 km/h 78 % 0 mm 102 W/m2
19:15 18.1 °C 14.2 °C 1009.4 hPa SW 22.5 km/h 35.4 km/h 78 % 0 mm 264 W/m2
19:20 18.1 °C 14.2 °C 1009.4 hPa SW 20.9 km/h 35.4 km/h 78 % 0 mm 127 W/m2
19:25 18.1 °C 14 °C 1009.4 hPa SW 22.5 km/h 45.1 km/h 77 % 0 mm 86 W/m2
19:30 18 °C 14.1 °C 1009.4 hPa SSW 22.5 km/h 45.1 km/h 78 % 0 mm 241 W/m2
19:35 18.1 °C 14.2 °C 1009.4 hPa SSW 19.3 km/h 37 km/h 78 % 0 mm 190 W/m2
19:40 18.1 °C 14.2 °C 1009.7 hPa SSW 16.1 km/h 32.2 km/h 78 % 0 mm 190 W/m2
19:45 18.1 °C 14 °C 1009.7 hPa SW 16.1 km/h 35.4 km/h 77 % 0 mm 58 W/m2
19:50 18.1 °C 14 °C 1009.7 hPa SW 17.7 km/h 37 km/h 77 % 0 mm 51 W/m2
19:55 17.9 °C 14 °C 1009.7 hPa SSW 17.7 km/h 37 km/h 78 % 0 mm 16 W/m2
20:00 17.8 °C 13.7 °C 1010 hPa SSW 17.7 km/h 35.4 km/h 77 % 0 mm 7 W/m2
20:05 17.7 °C 13.6 °C 1010 hPa SW 16.1 km/h 35.4 km/h 77 % 0 mm 5 W/m2
20:15 17.6 °C 13.5 °C 1010 hPa SW 11.3 km/h 19.3 km/h 77 % 0 mm 5 W/m2
20:20 17.6 °C 13.5 °C 1010 hPa SW 8 km/h 17.7 km/h 77 % 0 mm 5 W/m2
20:25 17.6 °C 13.5 °C 1010.4 hPa WSW 6.4 km/h 19.3 km/h 77 % 0 mm 7 W/m2
20:30 17.5 °C 13.4 °C 1010.4 hPa SW 11.3 km/h 30.6 km/h 77 % 0 mm 9 W/m2
20:35 17.4 °C 13.5 °C 1010.4 hPa SW 14.5 km/h 30.6 km/h 78 % 0 mm 11 W/m2
20:40 17.3 °C 13.4 °C 1010.4 hPa SW 14.5 km/h 25.7 km/h 78 % 0 mm 5 W/m2
20:45 17.3 °C 13.4 °C 1010.4 hPa SW 11.3 km/h 19.3 km/h 78 % 0 mm 5 W/m2
20:50 17.2 °C 13.3 °C 1010.4 hPa SSW 11.3 km/h 20.9 km/h 78 % 0 mm 0 W/m2
20:55 17.2 °C 13.3 °C 1010.4 hPa SW 12.9 km/h 32.2 km/h 78 % 0 mm 0 W/m2
21:00 17.2 °C 13.3 °C 1010.7 hPa SW 11.3 km/h 32.2 km/h 78 % 0 mm 5 W/m2
21:05 17.1 °C 13.2 °C 1010.7 hPa WSW 11.3 km/h 22.5 km/h 78 % 0 mm 0 W/m2
21:10 17 °C 13.1 °C 1010.7 hPa SW 14.5 km/h 32.2 km/h 78 % 0 mm 0 W/m2
21:11 17 °C 13.1 °C 1010.7 hPa SW 14.5 km/h 32.2 km/h 78 % 0 mm 0 W/m2
21:16 17 °C 13.1 °C 1010.7 hPa SW 16.1 km/h 32.2 km/h 78 % 0 mm 0 W/m2
21:21 16.9 °C 13.2 °C 1010.7 hPa SW 16.1 km/h 30.6 km/h 79 % 0 mm 0 W/m2
21:26 16.9 °C 13.2 °C 1011.1 hPa WSW 16.1 km/h 29 km/h 79 % 0 mm 0 W/m2
21:31 16.9 °C 13.2 °C 1011.1 hPa WSW 14.5 km/h 30.6 km/h 79 % 0 mm 0 W/m2
21:36 16.8 °C 13.3 °C 1011.1 hPa SW 16.1 km/h 30.6 km/h 80 % 0 mm 0 W/m2
21:41 16.8 °C 13.3 °C 1011.1 hPa SW 16.1 km/h 32.2 km/h 80 % 0 mm 0 W/m2
21:46 16.7 °C 13.2 °C 1011.1 hPa SW 19.3 km/h 38.6 km/h 80 % 0 mm 0 W/m2
21:51 16.7 °C 13.2 °C 1011.1 hPa SW 20.9 km/h 38.6 km/h 80 % 0 mm 0 W/m2
21:56 16.6 °C 13.1 °C 1011.1 hPa SW 20.9 km/h 37 km/h 80 % 0 mm 0 W/m2
22:01 16.6 °C 13.1 °C 1011.1 hPa SW 20.9 km/h 37 km/h 80 % 0 mm 0 W/m2
22:06 16.5 °C 13.2 °C 1011.1 hPa SW 22.5 km/h 45.1 km/h 81 % 0 mm 0 W/m2
22:11 16.4 °C 13.1 °C 1011.1 hPa SW 24.1 km/h 45.1 km/h 81 % 0 mm 0 W/m2
22:16 16.3 °C 13.1 °C 1011.1 hPa SW 22.5 km/h 38.6 km/h 81 % 0 mm 0 W/m2
22:18 16.3 °C 13.1 °C 1011.1 hPa SW 22.5 km/h 38.6 km/h 81 % 0 mm 0 W/m2
22:23 16.3 °C 13.2 °C 1011.1 hPa SW 19.3 km/h 38.6 km/h 82 % 0 mm 0 W/m2
22:28 16.3 °C 13.2 °C 1011.1 hPa SW 19.3 km/h 38.6 km/h 82 % 0 mm 0 W/m2
22:33 16.3 °C 13.2 °C 1011.1 hPa SW 19.3 km/h 38.6 km/h 82 % 0 mm 0 W/m2
22:38 16.3 °C 13.2 °C 1011.4 hPa SW 17.7 km/h 35.4 km/h 82 % 0 mm 0 W/m2
22:43 16.2 °C 13.1 °C 1011.4 hPa SW 19.3 km/h 35.4 km/h 82 % 0 mm 0 W/m2
22:48 16.2 °C 13.1 °C 1011.7 hPa SW 19.3 km/h 33.8 km/h 82 % 0 mm 0 W/m2
22:53 16.2 °C 13.3 °C 1011.7 hPa SW 19.3 km/h 40.2 km/h 83 % 0 mm 0 W/m2
22:58 16.1 °C 13.4 °C 1011.7 hPa SW 19.3 km/h 40.2 km/h 84 % 0 mm 0 W/m2
23:03 15.8 °C 13.1 °C 1011.7 hPa SW 20.9 km/h 40.2 km/h 84 % 0 mm 0 W/m2
23:08 15.7 °C 13.2 °C 1011.7 hPa SW 20.9 km/h 40.2 km/h 85 % 0 mm 0 W/m2
23:13 15.7 °C 13.4 °C 1011.7 hPa SW 19.3 km/h 37 km/h 86 % 0 mm 0 W/m2
23:18 15.6 °C 13.3 °C 1011.7 hPa SW 19.3 km/h 35.4 km/h 86 % 0 mm 0 W/m2
23:23 15.6 °C 13.3 °C 1011.7 hPa SW 20.9 km/h 35.4 km/h 86 % 0 mm 0 W/m2
23:28 15.6 °C 13.3 °C 1011.7 hPa SW 19.3 km/h 33.8 km/h 86 % 0 mm 0 W/m2
23:33 15.6 °C 13.3 °C 1011.7 hPa SW 19.3 km/h 33.8 km/h 86 % 0 mm 0 W/m2
23:38 15.6 °C 13.3 °C 1012.1 hPa SW 19.3 km/h 37 km/h 86 % 0 mm 0 W/m2
23:43 15.6 °C 13.3 °C 1012.1 hPa SW 20.9 km/h 37 km/h 86 % 0 mm 0 W/m2
23:48 15.6 °C 13.3 °C 1012.1 hPa SW 20.9 km/h 35.4 km/h 86 % 0 mm 0 W/m2
23:53 15.6 °C 13.3 °C 1012.1 hPa SW 19.3 km/h 35.4 km/h 86 % 0 mm 0 W/m2
Delerius-Weather
Compliments of Weather Underground - 2.25 mb

Data updates at regular intervals.